Aérodrome :
LOGIN :

S'inscrire | Disclaimer

   EN    FR    IT 

 










Légende :    VFR   VFR Marginal   IFR   IFR Intensif   IFR Très Intensif
Visi : 
Plafond : 
>= 8 km
>= 3000ft
5 à 8 km
1000 à 3000 ft
1500m à 5 km
500 à 1000 ft
800 à 1500m
200 à 500 ft
< 800m
< 200 ft
Symboles :   Orages  Brouillard  Fortes neiges  Fortes précipitations  Vent > 20 kt
SIGMETs :   Divers  Orages  Givrage  Turbulence  Onde Orograph.  Cendres Volcan.






- Altitude de l'aérodrome : 468 ft
- Code IATA : GRO


LEGE - Girona Costa Brava

DERNIER METAR :
  • 151330Z 19003KT 130V240 CAVOK 16/08 Q1011

METARs EXPIRÉS :
  • 151300Z 21004KT 160V260 CAVOK 16/08 Q1011
  • 151230Z 21003KT 160V260 CAVOK 16/08 Q1012
  • 151200Z 19003KT 140V240 CAVOK 15/09 Q1012
  • 151130Z 18003KT 150V220 CAVOK 14/08 Q1012
  • 151100Z 17002KT CAVOK 14/08 Q1013

TAF TAF LEGE
Valide du 15 à 12h jusqu'au 16 à 12h UTC


151100Z 1512/1612 18008KT 9999 FEW015 TX17/1513Z TN08/1606Z
BECMG 1516/1518 VRB03KT
PROB40
TEMPO 1521/1609 3000 BR OVC009
PROB30
TEMPO 1600/1606 0300 BCFG VV001



MET'MAP, la Météo Aéronautique d'un coup d'oeil ! - Copyright ORBIFLY Décembre 2007 - Disclaimer

ORBIFLY MET'MAP TEAM :

Programmation & Développement : Alexandra Zaïnal
Sur une idée originale de : Baudouin d'Aumeries
Assistance à la programmation : Marc-Olivier Méhu
Soutien technique & logistique : Manuel Goepfert

Contact : metmap@orbifly.com




SOURCES & CREDITS :

   NOAA